Time;durP1;ratioP1;P1;durP2;ratioP2;P2;SDS_P1;SDS_P2;PMS_P1;PMS_P2;Temp;Humidity;BMP_temperature;BMP_pressure;BME280_temperature;BME280_humidity;BME280_pressure;Samples;Min_cycle;Max_cycle;Signal;HPM_P1;HPM_P2
2021/01/07 00:01:32;;;;;;;13.50;11.40;;;;;;;;;;5109792;28;20701;-51
2021/01/07 00:03:57;;;;;;;13.57;10.33;;;;;;;;;;5110486;28;20166;-52
2021/01/07 00:06:22;;;;;;;15.13;10.40;;;;;;;;;;5110504;28;20254;-52
2021/01/07 00:08:47;;;;;;;13.93;10.73;;;;;;;;;;5105659;28;20216;-53
2021/01/07 00:11:12;;;;;;;13.65;11.45;;;;;;;;;;5105429;28;20196;-52
2021/01/07 00:13:38;;;;;;;15.75;12.25;;;;;;;;;;5109687;28;20172;-52
2021/01/07 00:16:03;;;;;;;15.90;11.97;;;;;;;;;;5110168;28;20528;-52
2021/01/07 00:18:28;;;;;;;14.13;12.60;;;;;;;;;;5107776;28;20178;-52
2021/01/07 00:20:54;;;;;;;16.45;11.25;;;;;;;;;;5109322;28;20222;-52
2021/01/07 00:23:19;;;;;;;14.20;11.60;;;;;;;;;;5109967;28;20178;-52
2021/01/07 00:25:48;;;;;;;13.57;10.60;;;;;;;;;;5109717;28;20195;-52
2021/01/07 00:28:13;;;;;;;13.40;10.50;;;;;;;;;;5105424;28;20214;-52
2021/01/07 00:30:38;;;;;;;13.63;11.63;;;;;;;;;;5109017;28;20953;-52
2021/01/07 00:33:03;;;;;;;14.57;10.98;;;;;;;;;;5109748;28;20178;-52
2021/01/07 00:35:28;;;;;;;15.23;11.00;;;;;;;;;;5110209;28;20174;-52
2021/01/07 00:37:54;;;;;;;13.60;11.77;;;;;;;;;;5108165;28;20550;-52
2021/01/07 00:40:19;;;;;;;12.90;10.68;;;;;;;;;;5104235;28;20271;-52
2021/01/07 00:42:44;;;;;;;15.10;11.55;;;;;;;;;;5107612;27;20179;-52
2021/01/07 00:45:09;;;;;;;11.98;10.63;;;;;;;;;;5108124;28;20198;-51
2021/01/07 00:47:34;;;;;;;15.80;12.60;;;;;;;;;;5106363;28;20231;-51
2021/01/07 00:49:59;;;;;;;14.68;11.68;;;;;;;;;;5106844;28;20171;-53
2021/01/07 00:52:25;;;;;;;15.20;11.85;;;;;;;;;;5109048;28;20168;-53
2021/01/07 00:54:50;;;;;;;14.23;10.85;;;;;;;;;;5109337;28;20179;-51
2021/01/07 00:57:15;;;;;;;14.00;10.33;;;;;;;;;;5108166;28;20176;-52
2021/01/07 00:59:40;;;;;;;13.30;10.73;;;;;;;;;;5105523;28;20170;-53
2021/01/07 01:02:05;;;;;;;13.80;10.50;;;;;;;;;;5109641;28;20177;-53
2021/01/07 01:04:30;;;;;;;15.03;10.70;;;;;;;;;;5109332;28;20641;-52
2021/01/07 01:06:56;;;;;;;12.93;10.03;;;;;;;;;;5109132;28;20210;-51
2021/01/07 01:09:21;;;;;;;14.23;11.00;;;;;;;;;;5105483;28;20225;-50
2021/01/07 01:11:47;;;;;;;13.57;11.05;;;;;;;;;;5108918;28;20598;-52
2021/01/07 01:14:13;;;;;;;14.87;11.30;;;;;;;;;;5109259;28;20185;-52
2021/01/07 01:16:38;;;;;;;14.40;11.50;;;;;;;;;;5108879;28;20625;-51
2021/01/07 01:19:04;;;;;;;14.80;11.30;;;;;;;;;;5105358;28;20689;-53
2021/01/07 01:21:29;;;;;;;13.60;10.90;;;;;;;;;;5108906;28;20190;-52
2021/01/07 01:23:54;;;;;;;15.25;11.15;;;;;;;;;;5108913;28;20625;-51
2021/01/07 01:26:20;;;;;;;13.53;11.60;;;;;;;;;;5109906;28;20666;-50
2021/01/07 01:28:45;;;;;;;14.18;12.07;;;;;;;;;;5104944;28;20172;-53
2021/01/07 01:31:11;;;;;;;13.57;11.48;;;;;;;;;;5108826;28;20176;-51
2021/01/07 01:33:36;;;;;;;15.73;12.73;;;;;;;;;;5109326;28;20185;-52
2021/01/07 01:36:01;;;;;;;15.27;12.80;;;;;;;;;;5109181;28;20589;-52
2021/01/07 01:38:26;;;;;;;13.93;11.13;;;;;;;;;;5105602;28;20173;-52
2021/01/07 01:40:51;;;;;;;13.20;11.30;;;;;;;;;;5109026;28;20185;-51
2021/01/07 01:43:16;;;;;;;14.10;11.90;;;;;;;;;;5105912;28;20163;-51
2021/01/07 01:45:42;;;;;;;15.10;12.50;;;;;;;;;;5106756;28;20604;-51
2021/01/07 01:48:08;;;;;;;13.77;11.50;;;;;;;;;;5105168;28;20246;-51
2021/01/07 01:50:33;;;;;;;17.03;13.13;;;;;;;;;;5109308;28;20177;-51
2021/01/07 01:52:58;;;;;;;13.53;11.60;;;;;;;;;;5109130;28;20602;-51
2021/01/07 01:55:23;;;;;;;14.17;11.27;;;;;;;;;;5109094;28;20180;-52
2021/01/07 01:57:49;;;;;;;13.20;11.80;;;;;;;;;;5107070;28;20175;-51
2021/01/07 02:00:15;;;;;;;14.10;11.47;;;;;;;;;;5111915;28;20309;-52
2021/01/07 02:02:40;;;;;;;12.73;10.60;;;;;;;;;;5112345;28;20182;-52
2021/01/07 02:05:05;;;;;;;14.73;11.70;;;;;;;;;;5113004;28;20184;-52
2021/01/07 02:07:32;;;;;;;13.07;11.70;;;;;;;;;;5112583;28;20282;-51
2021/01/07 02:09:57;;;;;;;15.37;11.50;;;;;;;;;;5110444;28;20242;-52
2021/01/07 02:12:23;;;;;;;16.33;12.10;;;;;;;;;;5112986;28;20593;-52
2021/01/07 02:14:48;;;;;;;14.57;11.80;;;;;;;;;;5113299;27;20644;-51
2021/01/07 02:17:14;;;;;;;12.63;10.70;;;;;;;;;;5112914;28;20163;-51
2021/01/07 02:19:39;;;;;;;13.67;11.87;;;;;;;;;;5109296;28;20231;-52
2021/01/07 02:22:05;;;;;;;12.83;10.70;;;;;;;;;;5110680;28;20202;-51
2021/01/07 02:24:30;;;;;;;13.03;10.73;;;;;;;;;;5111784;28;20279;-52
2021/01/07 02:26:58;;;;;;;13.80;11.47;;;;;;;;;;5112424;28;20545;-51
2021/01/07 02:29:23;;;;;;;14.80;11.10;;;;;;;;;;5110215;28;20168;-52
2021/01/07 02:31:48;;;;;;;14.13;11.97;;;;;;;;;;5111725;28;21185;-52
2021/01/07 02:34:13;;;;;;;13.43;10.90;;;;;;;;;;5111604;28;20170;-52
2021/01/07 02:36:38;;;;;;;11.23;9.70;;;;;;;;;;5112695;28;20184;-52
2021/01/07 02:39:04;;;;;;;12.65;10.85;;;;;;;;;;5107938;28;20182;-51
2021/01/07 02:41:29;;;;;;;13.87;10.90;;;;;;;;;;5111656;28;20195;-52
2021/01/07 02:43:54;;;;;;;12.60;10.85;;;;;;;;;;5111234;28;20172;-52
2021/01/07 02:46:19;;;;;;;13.50;9.93;;;;;;;;;;5111633;28;20177;-52
2021/01/07 02:48:44;;;;;;;12.33;10.40;;;;;;;;;;5108418;28;20172;-50
2021/01/07 02:51:10;;;;;;;12.73;11.27;;;;;;;;;;5111302;28;20174;-51
2021/01/07 02:53:35;;;;;;;16.97;11.17;;;;;;;;;;5111723;28;20182;-50
2021/01/07 02:56:00;;;;;;;16.17;11.50;;;;;;;;;;5111376;28;20182;-50
2021/01/07 02:58:25;;;;;;;13.30;11.27;;;;;;;;;;5108212;28;20240;-55
2021/01/07 03:00:50;;;;;;;12.77;10.93;;;;;;;;;;5107689;28;20780;-51
2021/01/07 03:03:15;;;;;;;14.90;11.50;;;;;;;;;;5111713;28;20644;-51
2021/01/07 03:05:41;;;;;;;14.70;12.10;;;;;;;;;;5110535;28;20171;-51
2021/01/07 03:08:06;;;;;;;12.17;10.90;;;;;;;;;;5110675;28;20212;-51
2021/01/07 03:10:32;;;;;;;15.48;13.55;;;;;;;;;;5107850;28;20646;-50
2021/01/07 03:12:57;;;;;;;15.57;12.03;;;;;;;;;;5110685;28;20207;-51
2021/01/07 03:15:22;;;;;;;14.98;12.23;;;;;;;;;;5110311;28;20589;-51
2021/01/07 03:17:47;;;;;;;13.95;12.00;;;;;;;;;;5110570;28;20260;-51
2021/01/07 03:20:13;;;;;;;13.77;11.48;;;;;;;;;;5108633;28;20215;-52
2021/01/07 03:22:39;;;;;;;13.40;10.77;;;;;;;;;;5111041;28;20184;-51
2021/01/07 03:25:04;;;;;;;16.27;12.10;;;;;;;;;;5110259;28;20622;-51
2021/01/07 03:27:29;;;;;;;16.90;12.97;;;;;;;;;;5109207;28;20575;-51
2021/01/07 03:29:54;;;;;;;13.23;11.80;;;;;;;;;;5108347;28;20462;-50
2021/01/07 03:32:22;;;;;;;15.77;12.23;;;;;;;;;;5105366;28;20176;-51
2021/01/07 03:34:47;;;;;;;12.73;10.73;;;;;;;;;;5108389;28;21173;-51
2021/01/07 03:37:12;;;;;;;16.90;13.20;;;;;;;;;;5110560;28;20978;-51
2021/01/07 03:39:37;;;;;;;13.40;11.43;;;;;;;;;;5108618;28;20185;-51
2021/01/07 03:42:02;;;;;;;14.30;11.35;;;;;;;;;;5108185;28;20202;-51
2021/01/07 03:44:27;;;;;;;14.88;11.60;;;;;;;;;;5110600;28;20178;-51
2021/01/07 03:46:52;;;;;;;13.45;11.40;;;;;;;;;;5116506;27;20187;-51
2021/01/07 03:49:18;;;;;;;14.23;11.70;;;;;;;;;;5110586;28;20452;-52
2021/01/07 03:51:43;;;;;;;13.30;10.67;;;;;;;;;;5108290;28;20187;-52
2021/01/07 03:54:08;;;;;;;15.50;12.15;;;;;;;;;;5110465;28;20539;-52
2021/01/07 03:56:33;;;;;;;12.93;10.63;;;;;;;;;;5110228;28;20171;-50
2021/01/07 03:58:58;;;;;;;14.32;10.63;;;;;;;;;;5107578;28;20187;-51
2021/01/07 04:01:23;;;;;;;13.30;11.30;;;;;;;;;;5106314;28;20526;-51
2021/01/07 04:03:49;;;;;;;13.07;10.98;;;;;;;;;;5109548;28;20179;-51
2021/01/07 04:06:14;;;;;;;16.00;11.43;;;;;;;;;;5110369;28;20826;-50
2021/01/07 04:08:39;;;;;;;12.27;10.70;;;;;;;;;;5107685;28;20238;-50
2021/01/07 04:11:04;;;;;;;12.33;10.63;;;;;;;;;;5109793;28;20189;-50
2021/01/07 04:13:29;;;;;;;13.00;10.43;;;;;;;;;;5109949;28;20169;-52
2021/01/07 04:15:55;;;;;;;12.40;10.93;;;;;;;;;;5109249;28;20189;-51
2021/01/07 04:18:20;;;;;;;13.07;10.20;;;;;;;;;;5109171;28;20713;-50
2021/01/07 04:20:45;;;;;;;12.65;11.02;;;;;;;;;;5107210;28;20287;-52
2021/01/07 04:23:10;;;;;;;13.30;11.00;;;;;;;;;;5109117;28;20694;-51
2021/01/07 04:25:35;;;;;;;14.30;11.63;;;;;;;;;;5109486;28;20202;-51
2021/01/07 04:28:01;;;;;;;13.70;11.57;;;;;;;;;;5110407;27;20261;-51
2021/01/07 04:30:26;;;;;;;14.90;11.35;;;;;;;;;;5106068;28;20540;-52
2021/01/07 04:32:51;;;;;;;12.15;9.90;;;;;;;;;;5109684;28;20180;-51
2021/01/07 04:35:16;;;;;;;14.48;10.98;;;;;;;;;;5109904;28;20164;-51
2021/01/07 04:37:41;;;;;;;16.27;11.90;;;;;;;;;;5109903;28;20544;-50
2021/01/07 04:40:07;;;;;;;14.87;11.20;;;;;;;;;;5104952;28;20538;-50
2021/01/07 04:42:32;;;;;;;14.27;11.33;;;;;;;;;;5109539;28;20652;-50
2021/01/07 04:44:58;;;;;;;15.60;11.83;;;;;;;;;;5109567;28;20255;-51
2021/01/07 04:47:23;;;;;;;13.57;11.10;;;;;;;;;;5109582;28;20729;-52
2021/01/07 04:49:49;;;;;;;13.70;11.23;;;;;;;;;;5107163;28;20299;-51
2021/01/07 04:52:15;;;;;;;15.60;12.10;;;;;;;;;;5109260;28;20192;-51
2021/01/07 04:54:40;;;;;;;13.67;11.10;;;;;;;;;;5109322;28;20633;-50
2021/01/07 04:57:05;;;;;;;14.95;11.90;;;;;;;;;;5109228;28;20222;-51
2021/01/07 04:59:30;;;;;;;12.85;10.80;;;;;;;;;;5105205;28;20184;-50
2021/01/07 05:01:56;;;;;;;14.35;11.60;;;;;;;;;;5107970;28;20546;-50
2021/01/07 05:04:21;;;;;;;14.83;11.77;;;;;;;;;;5109954;28;20211;-51
2021/01/07 05:06:46;;;;;;;15.63;11.80;;;;;;;;;;5109841;28;20655;-50
2021/01/07 05:09:12;;;;;;;13.57;11.50;;;;;;;;;;5108029;28;20796;-50
2021/01/07 05:11:37;;;;;;;12.40;10.43;;;;;;;;;;5111054;28;20155;-50
2021/01/07 05:14:03;;;;;;;11.73;10.52;;;;;;;;;;5109540;28;20182;-50
2021/01/07 05:16:29;;;;;;;12.30;10.00;;;;;;;;;;5109294;28;20175;-49
2021/01/07 05:18:54;;;;;;;13.40;11.33;;;;;;;;;;5108143;28;21167;-51
2021/01/07 05:21:20;;;;;;;15.37;11.70;;;;;;;;;;5109932;28;20180;-51
2021/01/07 05:23:46;;;;;;;14.73;12.03;;;;;;;;;;5109366;28;20195;-52
2021/01/07 05:26:11;;;;;;;13.43;11.50;;;;;;;;;;5109978;28;20198;-51
2021/01/07 05:28:36;;;;;;;12.77;11.47;;;;;;;;;;5109687;28;20636;-49
2021/01/07 05:31:02;;;;;;;13.10;10.83;;;;;;;;;;5114501;28;20172;-51
2021/01/07 05:33:27;;;;;;;12.47;10.10;;;;;;;;;;5108911;27;20172;-50
2021/01/07 05:35:54;;;;;;;16.07;10.77;;;;;;;;;;5109312;28;21180;-51
2021/01/07 05:38:19;;;;;;;13.17;10.60;;;;;;;;;;5111639;28;20191;-50
2021/01/07 05:40:48;;;;;;;12.77;10.60;;;;;;;;;;5110583;28;20600;-50
2021/01/07 05:43:13;;;;;;;11.30;9.70;;;;;;;;;;5112217;28;20186;-51
2021/01/07 05:45:39;;;;;;;13.47;10.17;;;;;;;;;;5112998;28;20607;-51
2021/01/07 05:48:04;;;;;;;11.63;9.40;;;;;;;;;;5112680;28;20233;-51
2021/01/07 05:50:35;;;;;;;11.67;10.03;;;;;;;;;;5110369;28;20187;-50
2021/01/07 05:53:01;;;;;;;11.83;10.00;;;;;;;;;;5113105;28;20176;-50
2021/01/07 05:55:27;;;;;;;12.20;9.93;;;;;;;;;;5113592;28;20646;-51
2021/01/07 05:57:56;;;;;;;14.10;9.93;;;;;;;;;;5112857;27;20181;-51
2021/01/07 06:00:22;;;;;;;13.43;9.67;;;;;;;;;;5110886;28;20604;-53
2021/01/07 06:02:51;;;;;;;10.00;9.00;;;;;;;;;;5112243;28;20600;-51
2021/01/07 06:05:16;;;;;;;9.23;7.93;;;;;;;;;;5112547;28;20218;-52
2021/01/07 06:07:42;;;;;;;10.43;8.98;;;;;;;;;;5111229;28;20681;-51
2021/01/07 06:10:08;;;;;;;10.93;9.23;;;;;;;;;;5110473;28;20180;-52
2021/01/07 06:12:33;;;;;;;13.33;8.90;;;;;;;;;;5110135;27;20180;-52
2021/01/07 06:15:00;;;;;;;11.98;9.30;;;;;;;;;;5110107;27;20935;-51
2021/01/07 06:17:27;;;;;;;9.80;8.67;;;;;;;;;;5105425;28;20186;-51
2021/01/07 06:19:53;;;;;;;9.53;8.53;;;;;;;;;;5107431;28;20644;-51
2021/01/07 06:22:20;;;;;;;13.43;9.93;;;;;;;;;;5110895;28;21422;-52
2021/01/07 06:24:45;;;;;;;10.63;9.33;;;;;;;;;;5104451;27;20659;-51
2021/01/07 06:27:17;;;;;;;11.00;9.20;;;;;;;;;;5103157;28;20648;-52
2021/01/07 06:29:42;;;;;;;12.87;9.93;;;;;;;;;;5105507;28;20265;-53
2021/01/07 06:32:07;;;;;;;12.82;10.13;;;;;;;;;;5108717;28;20700;-51
2021/01/07 06:34:40;;;;;;;11.95;9.65;;;;;;;;;;5109522;28;20171;-52
2021/01/07 06:37:05;;;;;;;13.33;9.27;;;;;;;;;;5109177;28;20643;-52
2021/01/07 06:39:30;;;;;;;11.20;9.47;;;;;;;;;;5107400;28;20723;-51
2021/01/07 06:41:57;;;;;;;11.07;9.70;;;;;;;;;;5107883;27;20256;-51
2021/01/07 06:44:23;;;;;;;12.10;10.17;;;;;;;;;;5112825;27;20274;-51
2021/01/07 06:46:49;;;;;;;13.40;11.67;;;;;;;;;;5107680;28;20742;-52
2021/01/07 06:49:23;;;;;;;12.73;10.63;;;;;;;;;;5109188;28;20927;-51
2021/01/07 06:51:52;;;;;;;12.20;9.27;;;;;;;;;;5108191;28;20172;-51
2021/01/07 06:54:17;;;;;;;12.20;10.70;;;;;;;;;;5103688;28;20614;-52
2021/01/07 06:56:43;;;;;;;14.90;10.83;;;;;;;;;;5108111;28;20610;-51
2021/01/07 06:59:11;;;;;;;13.10;10.50;;;;;;;;;;5108502;28;20177;-51
2021/01/07 07:01:44;;;;;;;14.87;11.70;;;;;;;;;;5104848;28;20606;-52
2021/01/07 07:04:10;;;;;;;11.40;9.43;;;;;;;;;;5109644;27;20605;-51
2021/01/07 07:06:43;;;;;;;12.57;10.50;;;;;;;;;;5108522;28;20600;-51
2021/01/07 07:09:21;;;;;;;14.80;11.60;;;;;;;;;;5110951;28;20190;-52
2021/01/07 07:11:55;;;;;;;13.77;11.40;;;;;;;;;;5106452;28;20597;-51
2021/01/07 07:14:21;;;;;;;19.33;12.00;;;;;;;;;;5104943;27;20677;-52
2021/01/07 07:16:50;;;;;;;13.63;10.73;;;;;;;;;;5110498;28;21033;-52
2021/01/07 07:19:24;;;;;;;12.77;10.33;;;;;;;;;;5109364;28;20258;-51
2021/01/07 07:22:09;;;;;;;15.93;11.97;;;;;;;;;;5109458;28;20609;-51
2021/01/07 07:24:35;;;;;;;14.10;11.70;;;;;;;;;;5104403;28;20648;-51
2021/01/07 07:27:06;;;;;;;13.80;11.73;;;;;;;;;;5111038;28;20795;-51
2021/01/07 07:29:33;;;;;;;14.50;12.43;;;;;;;;;;5108211;27;20640;-52
2021/01/07 07:31:58;;;;;;;16.47;12.63;;;;;;;;;;5109066;28;20599;-51
2021/01/07 07:34:30;;;;;;;14.50;11.93;;;;;;;;;;5110632;28;21174;-50
2021/01/07 07:36:56;;;;;;;14.13;11.50;;;;;;;;;;5106520;27;20168;-52
2021/01/07 07:39:24;;;;;;;14.50;11.80;;;;;;;;;;5111043;28;20617;-51
2021/01/07 07:42:02;;;;;;;13.60;11.30;;;;;;;;;;5102298;28;20640;-50
2021/01/07 07:44:27;;;;;;;15.17;12.00;;;;;;;;;;5111021;28;20620;-51
2021/01/07 07:46:53;;;;;;;13.20;10.43;;;;;;;;;;5107878;27;20649;-51
2021/01/07 07:49:23;;;;;;;14.97;11.53;;;;;;;;;;5112245;27;20171;-52
2021/01/07 07:51:51;;;;;;;12.07;10.57;;;;;;;;;;5109134;27;20223;-51
2021/01/07 07:54:16;;;;;;;14.93;11.63;;;;;;;;;;5110578;28;20604;-52
2021/01/07 07:56:41;;;;;;;14.55;11.55;;;;;;;;;;5110340;28;20682;-51
2021/01/07 07:59:07;;;;;;;19.17;11.68;;;;;;;;;;5110299;28;20207;-51
2021/01/07 08:01:41;;;;;;;15.73;11.97;;;;;;;;;;5107198;28;20404;-51
2021/01/07 08:04:13;;;;;;;15.30;11.53;;;;;;;;;;5113262;27;20603;-51
2021/01/07 08:06:38;;;;;;;13.67;11.00;;;;;;;;;;5110290;28;20608;-50
2021/01/07 08:09:08;;;;;;;11.90;10.67;;;;;;;;;;5110855;28;20585;-52
2021/01/07 08:11:40;;;;;;;11.70;10.30;;;;;;;;;;5111059;28;20813;-51
2021/01/07 08:14:08;;;;;;;14.40;10.83;;;;;;;;;;5110312;28;20627;-51
2021/01/07 08:16:33;;;;;;;17.23;13.03;;;;;;;;;;5112034;27;20620;-51
2021/01/07 08:18:58;;;;;;;22.10;16.73;;;;;;;;;;5108759;28;21184;-51
2021/01/07 08:21:24;;;;;;;22.33;15.30;;;;;;;;;;5108835;28;20292;-51
2021/01/07 08:23:49;;;;;;;19.60;15.10;;;;;;;;;;5111260;27;20171;-51
2021/01/07 08:26:24;;;;;;;23.40;17.10;;;;;;;;;;5114901;27;21188;-53
2021/01/07 08:28:50;;;;;;;27.90;20.30;;;;;;;;;;5110852;28;20211;-52
2021/01/07 08:31:20;;;;;;;27.57;18.63;;;;;;;;;;5108744;28;20591;-53
2021/01/07 08:33:45;;;;;;;19.10;13.90;;;;;;;;;;5102924;28;20586;-52
2021/01/07 08:36:11;;;;;;;19.80;14.50;;;;;;;;;;5110951;28;20962;-52
2021/01/07 08:38:38;;;;;;;20.70;15.33;;;;;;;;;;5110701;28;20600;-51
2021/01/07 08:41:10;;;;;;;17.87;14.07;;;;;;;;;;5107825;28;20634;-50
2021/01/07 08:43:36;;;;;;;13.90;11.50;;;;;;;;;;5107106;28;20589;-51
2021/01/07 08:46:14;;;;;;;14.60;12.27;;;;;;;;;;5109947;27;20730;-51
2021/01/07 08:48:39;;;;;;;22.50;17.33;;;;;;;;;;5111075;27;20637;-50
2021/01/07 08:51:17;;;;;;;15.00;12.48;;;;;;;;;;5106531;28;20597;-50
2021/01/07 08:54:06;;;;;;;13.10;11.20;;;;;;;;;;5109953;28;20179;-50
2021/01/07 08:56:35;;;;;;;11.17;9.40;;;;;;;;;;5101741;28;20961;-50
2021/01/07 08:59:19;;;;;;;12.83;10.07;;;;;;;;;;5108585;28;21399;-50
2021/01/07 09:01:45;;;;;;;11.97;10.70;;;;;;;;;;5106138;28;20964;-50
2021/01/07 09:04:30;;;;;;;12.70;10.33;;;;;;;;;;5109481;28;20597;-49
2021/01/07 09:07:00;;;;;;;14.07;11.10;;;;;;;;;;5109572;28;20740;-52
2021/01/07 09:09:26;;;;;;;13.27;10.60;;;;;;;;;;5112338;28;20593;-49
2021/01/07 09:12:06;;;;;;;12.00;9.97;;;;;;;;;;5110597;28;21151;-51
2021/01/07 09:14:41;;;;;;;11.80;10.03;;;;;;;;;;5114005;28;20607;-51
2021/01/07 09:17:06;;;;;;;10.80;9.70;;;;;;;;;;5113591;28;20615;-51
2021/01/07 09:19:33;;;;;;;12.15;9.73;;;;;;;;;;5113642;28;20658;-50
2021/01/07 09:21:59;;;;;;;12.27;9.70;;;;;;;;;;5110028;28;20204;-50
2021/01/07 09:24:24;;;;;;;12.53;9.47;;;;;;;;;;5113166;28;20620;-52
2021/01/07 09:26:50;;;;;;;10.63;9.50;;;;;;;;;;5113317;28;20595;-51
2021/01/07 09:29:15;;;;;;;10.23;9.13;;;;;;;;;;5113277;28;20189;-51
2021/01/07 09:31:40;;;;;;;12.52;9.50;;;;;;;;;;5111745;28;21145;-50
2021/01/07 09:34:06;;;;;;;14.15;9.77;;;;;;;;;;5113881;28;20159;-51
2021/01/07 09:36:31;;;;;;;10.00;8.40;;;;;;;;;;5113239;28;20177;-50
2021/01/07 09:38:56;;;;;;;9.10;8.10;;;;;;;;;;5112954;28;20621;-52
2021/01/07 09:41:21;;;;;;;9.43;8.10;;;;;;;;;;5110915;28;20177;-52
2021/01/07 09:43:46;;;;;;;10.17;8.90;;;;;;;;;;5113422;28;20200;-51
2021/01/07 09:46:11;;;;;;;11.07;9.20;;;;;;;;;;5113095;28;20631;-52
2021/01/07 09:48:37;;;;;;;11.40;9.40;;;;;;;;;;5112694;28;20744;-51
2021/01/07 09:51:02;;;;;;;9.93;8.35;;;;;;;;;;5111180;28;20197;-51
2021/01/07 09:53:27;;;;;;;10.50;9.40;;;;;;;;;;5113093;28;20209;-50
2021/01/07 09:55:53;;;;;;;10.80;8.85;;;;;;;;;;5113168;28;20587;-52
2021/01/07 09:58:18;;;;;;;10.50;8.90;;;;;;;;;;5112361;28;20676;-52
2021/01/07 10:00:43;;;;;;;11.02;9.25;;;;;;;;;;5110633;28;20324;-50
2021/01/07 10:03:08;;;;;;;11.30;9.50;;;;;;;;;;5113116;28;20175;-53
2021/01/07 10:05:33;;;;;;;10.43;9.02;;;;;;;;;;5112612;28;20577;-51
2021/01/07 10:07:59;;;;;;;12.65;8.93;;;;;;;;;;5112857;28;20598;-50
2021/01/07 10:10:25;;;;;;;12.10;10.33;;;;;;;;;;5112310;28;20199;-51
2021/01/07 10:12:50;;;;;;;12.07;9.32;;;;;;;;;;5110853;28;21024;-50
2021/01/07 10:15:15;;;;;;;11.63;9.90;;;;;;;;;;5112627;28;20177;-51
2021/01/07 10:17:40;;;;;;;11.27;9.50;;;;;;;;;;5112355;28;20205;-51
2021/01/07 10:20:06;;;;;;;11.27;9.63;;;;;;;;;;5111877;28;20225;-52
2021/01/07 10:22:33;;;;;;;13.30;9.60;;;;;;;;;;5110546;28;20186;-51
2021/01/07 10:24:58;;;;;;;11.00;9.23;;;;;;;;;;5112213;28;20625;-51
2021/01/07 10:27:28;;;;;;;10.07;8.97;;;;;;;;;;5110702;28;21072;-50
2021/01/07 10:29:53;;;;;;;10.80;9.43;;;;;;;;;;5111985;28;20214;-50
2021/01/07 10:32:19;;;;;;;11.57;9.00;;;;;;;;;;5110152;28;21003;-51
2021/01/07 10:34:45;;;;;;;10.13;8.60;;;;;;;;;;5112309;28;20172;-51
2021/01/07 10:37:11;;;;;;;9.07;8.17;;;;;;;;;;5112460;28;20324;-51
2021/01/07 10:39:37;;;;;;;12.30;9.37;;;;;;;;;;5112198;28;20690;-51
2021/01/07 10:42:06;;;;;;;11.40;8.90;;;;;;;;;;5109497;28;20664;-51
2021/01/07 10:44:35;;;;;;;12.37;9.63;;;;;;;;;;5112201;28;20946;-51
2021/01/07 10:47:01;;;;;;;11.00;8.90;;;;;;;;;;5111758;28;20638;-51
2021/01/07 10:49:28;;;;;;;13.70;11.80;;;;;;;;;;5111995;28;20769;-52
2021/01/07 10:52:02;;;;;;;12.87;11.57;;;;;;;;;;5116834;27;20599;-52
2021/01/07 10:54:45;;;;;;;10.13;8.23;;;;;;;;;;5111975;28;20598;-51
2021/01/07 10:57:29;;;;;;;10.70;9.33;;;;;;;;;;5104298;28;20602;-51
2021/01/07 11:00:03;;;;;;;10.60;9.50;;;;;;;;;;5111647;28;20613;-51
2021/01/07 11:02:46;;;;;;;9.43;8.27;;;;;;;;;;5109281;28;20609;-51
2021/01/07 11:05:19;;;;;;;10.80;8.97;;;;;;;;;;5111853;28;20590;-51
2021/01/07 11:07:48;;;;;;;10.30;8.87;;;;;;;;;;5111754;28;20751;-51
2021/01/07 11:10:14;;;;;;;9.47;8.03;;;;;;;;;;5111517;28;20602;-51
2021/01/07 11:12:57;;;;;;;9.57;8.03;;;;;;;;;;5109094;28;21162;-51
2021/01/07 11:15:24;;;;;;;10.10;8.70;;;;;;;;;;5104811;28;20172;-52
2021/01/07 11:17:53;;;;;;;32.00;19.03;;;;;;;;;;5111416;28;20615;-53
2021/01/07 11:20:21;;;;;;;24.00;13.50;;;;;;;;;;5103423;28;20649;-50
2021/01/07 11:22:46;;;;;;;14.60;9.40;;;;;;;;;;5107830;28;20604;-50
2021/01/07 11:25:12;;;;;;;9.70;8.03;;;;;;;;;;5110832;28;20626;-51
2021/01/07 11:27:37;;;;;;;11.37;10.17;;;;;;;;;;5111135;28;20277;-50
2021/01/07 11:30:04;;;;;;;10.43;9.03;;;;;;;;;;5110326;28;20232;-51
2021/01/07 11:32:30;;;;;;;10.90;8.30;;;;;;;;;;5107981;27;20196;-51
2021/01/07 11:34:58;;;;;;;10.20;8.30;;;;;;;;;;5110986;28;20617;-51
2021/01/07 11:37:27;;;;;;;9.20;7.87;;;;;;;;;;5111700;28;20267;-52
2021/01/07 11:39:58;;;;;;;10.23;7.77;;;;;;;;;;5111414;28;20597;-50
2021/01/07 11:42:36;;;;;;;9.40;8.07;;;;;;;;;;5083973;28;21260;-50
2021/01/07 11:45:17;;;;;;;8.60;7.70;;;;;;;;;;5109974;28;20610;-51
2021/01/07 11:47:55;;;;;;;9.63;8.10;;;;;;;;;;5111437;28;20646;-51
2021/01/07 11:50:22;;;;;;;8.53;7.40;;;;;;;;;;5110817;28;20587;-51
2021/01/07 11:52:47;;;;;;;9.23;7.73;;;;;;;;;;5109427;28;20580;-52
2021/01/07 11:55:13;;;;;;;9.60;7.80;;;;;;;;;;5110210;28;20947;-51
2021/01/07 11:57:40;;;;;;;8.47;7.23;;;;;;;;;;5110667;28;20656;-52
2021/01/07 12:00:07;;;;;;;8.57;7.67;;;;;;;;;;5109958;28;20176;-48
2021/01/07 12:02:32;;;;;;;8.40;7.30;;;;;;;;;;5107710;27;20600;-46
2021/01/07 12:04:59;;;;;;;9.13;8.20;;;;;;;;;;5110606;28;20592;-45
2021/01/07 12:07:33;;;;;;;8.57;7.30;;;;;;;;;;5110462;28;20193;-46
2021/01/07 12:10:00;;;;;;;8.07;7.30;;;;;;;;;;5110184;28;20594;-45
2021/01/07 12:12:30;;;;;;;8.07;7.13;;;;;;;;;;5108306;28;20663;-45
2021/01/07 12:14:55;;;;;;;8.27;7.30;;;;;;;;;;5110697;28;20648;-45
2021/01/07 12:17:21;;;;;;;8.97;7.50;;;;;;;;;;5109877;28;20600;-45
2021/01/07 12:19:47;;;;;;;9.15;8.20;;;;;;;;;;5110807;28;20272;-46
2021/01/07 12:22:16;;;;;;;9.50;7.00;;;;;;;;;;5108593;28;20181;-45
2021/01/07 12:24:42;;;;;;;7.97;7.13;;;;;;;;;;5100936;28;20620;-46
2021/01/07 12:27:08;;;;;;;7.73;6.67;;;;;;;;;;5110237;28;20636;-45
2021/01/07 12:29:36;;;;;;;7.67;6.97;;;;;;;;;;5110567;28;20598;-46
2021/01/07 12:32:07;;;;;;;7.60;6.73;;;;;;;;;;5108265;28;20169;-45
2021/01/07 12:34:40;;;;;;;10.10;8.47;;;;;;;;;;5106164;27;20615;-46
2021/01/07 12:37:10;;;;;;;9.27;7.37;;;;;;;;;;5112858;27;20637;-45
2021/01/07 12:39:53;;;;;;;9.43;7.67;;;;;;;;;;5111366;27;20682;-45
2021/01/07 12:42:29;;;;;;;8.00;7.20;;;;;;;;;;5105117;27;20617;-45
2021/01/07 12:44:54;;;;;;;8.07;7.30;;;;;;;;;;5108778;28;20602;-46
2021/01/07 12:47:20;;;;;;;8.20;7.40;;;;;;;;;;5107302;28;20651;-45
2021/01/07 12:49:47;;;;;;;8.13;7.30;;;;;;;;;;5108397;28;20634;-45
2021/01/07 12:52:12;;;;;;;10.27;8.07;;;;;;;;;;5105930;28;20174;-45
2021/01/07 12:54:37;;;;;;;8.00;7.17;;;;;;;;;;5108481;28;21189;-45
2021/01/07 12:57:04;;;;;;;8.50;7.60;;;;;;;;;;5110095;28;20184;-45
2021/01/07 12:59:32;;;;;;;8.37;7.57;;;;;;;;;;5109868;28;20187;-46
2021/01/07 13:02:16;;;;;;;9.53;7.70;;;;;;;;;;5107539;28;20600;-45
2021/01/07 13:04:59;;;;;;;8.60;7.00;;;;;;;;;;5107950;28;20603;-45
2021/01/07 13:07:26;;;;;;;7.97;7.10;;;;;;;;;;5104350;28;20640;-46
2021/01/07 13:09:52;;;;;;;8.63;7.47;;;;;;;;;;5110209;28;20609;-45
2021/01/07 13:12:17;;;;;;;8.83;7.93;;;;;;;;;;5107975;28;20608;-45
2021/01/07 13:14:42;;;;;;;9.73;7.53;;;;;;;;;;5106071;28;20259;-46
2021/01/07 13:17:08;;;;;;;7.40;6.60;;;;;;;;;;5107587;28;20242;-45
2021/01/07 13:19:33;;;;;;;8.70;7.80;;;;;;;;;;5108067;28;20705;-45
2021/01/07 13:21:59;;;;;;;7.80;7.00;;;;;;;;;;5106053;28;20262;-46
2021/01/07 13:24:24;;;;;;;8.27;7.47;;;;;;;;;;5109935;28;20197;-45
2021/01/07 13:26:49;;;;;;;8.83;7.93;;;;;;;;;;5109441;28;20174;-45
2021/01/07 13:29:17;;;;;;;6.87;6.17;;;;;;;;;;5109672;28;20173;-46
2021/01/07 13:31:43;;;;;;;8.30;7.50;;;;;;;;;;5109434;28;20200;-46
2021/01/07 13:34:09;;;;;;;8.00;7.17;;;;;;;;;;5107864;28;20615;-46
2021/01/07 13:36:34;;;;;;;8.47;7.53;;;;;;;;;;5109141;28;20166;-46
2021/01/07 13:38:59;;;;;;;8.93;7.30;;;;;;;;;;5109590;28;20245;-46
2021/01/07 13:41:25;;;;;;;10.20;7.47;;;;;;;;;;5109592;28;20185;-46
2021/01/07 13:43:51;;;;;;;8.77;7.30;;;;;;;;;;5109700;28;20204;-46
2021/01/07 13:46:19;;;;;;;9.03;8.03;;;;;;;;;;5109099;28;20596;-47
2021/01/07 13:48:46;;;;;;;9.13;7.20;;;;;;;;;;5109099;28;21240;-44
2021/01/07 13:51:11;;;;;;;7.30;6.50;;;;;;;;;;5109787;28;20777;-44
2021/01/07 13:53:37;;;;;;;8.53;7.63;;;;;;;;;;5109335;28;21009;-44
2021/01/07 13:56:03;;;;;;;8.33;7.53;;;;;;;;;;5112814;28;20172;-44
2021/01/07 13:58:28;;;;;;;9.50;7.87;;;;;;;;;;5112564;28;21009;-43
2021/01/07 14:00:54;;;;;;;8.57;7.67;;;;;;;;;;5113470;28;20254;-45
2021/01/07 14:03:19;;;;;;;7.33;6.63;;;;;;;;;;5113255;28;20689;-45
2021/01/07 14:05:45;;;;;;;11.03;7.60;;;;;;;;;;5113130;28;20602;-44
2021/01/07 14:08:15;;;;;;;9.20;7.67;;;;;;;;;;5112953;28;20678;-44
2021/01/07 14:10:41;;;;;;;8.90;8.00;;;;;;;;;;5112854;28;20174;-44
2021/01/07 14:13:07;;;;;;;8.57;7.27;;;;;;;;;;5113351;28;20592;-45
2021/01/07 14:15:32;;;;;;;7.40;6.70;;;;;;;;;;5113132;28;20193;-44
2021/01/07 14:17:57;;;;;;;8.43;7.53;;;;;;;;;;5110355;28;20208;-45
2021/01/07 14:20:23;;;;;;;8.50;7.53;;;;;;;;;;5112809;28;20225;-45
2021/01/07 14:22:48;;;;;;;7.87;7.07;;;;;;;;;;5110572;28;20696;-45
2021/01/07 14:25:14;;;;;;;7.70;6.90;;;;;;;;;;5112089;28;20688;-45